Time;durP1;ratioP1;P1;durP2;ratioP2;P2;SDS_P1;SDS_P2;PMS_P1;PMS_P2;Temp;Humidity;BMP_temperature;BMP_pressure;BME280_temperature;BME280_humidity;BME280_pressure;Samples;Min_cycle;Max_cycle;Signal;HPM_P1;HPM_P2
2021/05/05 00:01:03;;;;;;;2.30;0.90;;;;;;;11.01;58.21;96720.66;8378714;28;20204;-62
2021/05/05 00:05:05;;;;;;;3.50;1.17;;;;;;;11.07;58.55;96714.25;8379653;28;20298;-61
2021/05/05 00:09:07;;;;;;;4.07;1.03;;;;;;;11.13;58.84;96714.66;8380184;28;20253;-61
2021/05/05 00:13:10;;;;;;;2.57;0.97;;;;;;;11.23;58.59;96722.69;8380055;28;20210;-62
2021/05/05 00:17:12;;;;;;;4.43;1.20;;;;;;;11.19;58.65;96726.38;8379691;28;20565;-61
2021/05/05 00:21:15;;;;;;;2.83;1.30;;;;;;;11.09;58.44;96713.22;8379473;28;20246;-61
2021/05/05 00:25:17;;;;;;;3.33;1.40;;;;;;;11.05;58.46;96711.75;8379682;28;20261;-62
2021/05/05 00:29:20;;;;;;;5.37;1.33;;;;;;;11.11;58.29;96695.81;8379468;28;20229;-60
2021/05/05 00:33:22;;;;;;;4.13;1.20;;;;;;;11.28;57.59;96688.66;8379238;28;20287;-62
2021/05/05 00:37:25;;;;;;;3.27;1.20;;;;;;;11.26;57.75;96690.53;8382393;28;20332;-61
2021/05/05 00:41:27;;;;;;;6.70;1.40;;;;;;;11.33;57.81;96689.19;8384914;28;20266;-61
2021/05/05 00:45:30;;;;;;;3.67;1.10;;;;;;;11.30;57.79;96694.56;8384974;28;20266;-62
2021/05/05 00:49:32;;;;;;;1.87;1.07;;;;;;;11.15;57.69;96683.47;8384728;28;20227;-61
2021/05/05 00:53:35;;;;;;;4.50;1.47;;;;;;;11.25;57.65;96688.88;8384626;28;20215;-61
2021/05/05 00:57:38;;;;;;;3.77;1.10;;;;;;;11.16;57.79;96685.16;8384516;28;20271;-62
2021/05/05 01:01:42;;;;;;;5.00;1.47;;;;;;;11.15;58.15;96683.47;8384343;28;20205;-62
2021/05/05 01:05:44;;;;;;;3.33;1.00;;;;;;;11.09;58.15;96682.13;8384057;28;20223;-61
2021/05/05 01:09:47;;;;;;;5.47;1.33;;;;;;;11.05;57.99;96672.91;8384167;28;20223;-61
2021/05/05 01:13:49;;;;;;;2.93;1.17;;;;;;;11.07;58.29;96670.22;8384183;28;20203;-62
2021/05/05 01:17:51;;;;;;;2.87;1.13;;;;;;;10.92;58.41;96665.09;8384032;28;20204;-62
2021/05/05 01:21:54;;;;;;;4.00;1.40;;;;;;;11.05;58.44;96664.31;8384359;28;20234;-62
2021/05/05 01:25:56;;;;;;;4.40;1.40;;;;;;;11.03;58.59;96672.19;8384308;28;20207;-61
2021/05/05 01:29:58;;;;;;;4.70;1.47;;;;;;;10.93;58.88;96660.78;8383994;28;20561;-62
2021/05/05 01:34:00;;;;;;;3.63;1.10;;;;;;;11.15;58.14;96680.88;8383497;28;20365;-62
2021/05/05 01:38:03;;;;;;;3.33;1.20;;;;;;;11.22;58.12;96676.13;8383824;28;20203;-62
2021/05/05 01:42:06;;;;;;;3.47;1.30;;;;;;;11.22;58.05;96678.72;8383625;28;20514;-62
2021/05/05 01:46:08;;;;;;;5.43;1.43;;;;;;;10.94;58.27;96675.38;8383196;28;20206;-62
2021/05/05 01:50:11;;;;;;;3.37;1.33;;;;;;;11.00;58.40;96672.38;8382382;28;20232;-62
2021/05/05 01:54:14;;;;;;;6.30;1.60;;;;;;;11.05;57.90;96672.06;8383083;28;20203;-62
2021/05/05 01:58:16;;;;;;;4.97;1.23;;;;;;;11.16;58.13;96661.81;8383344;28;20204;-61
2021/05/05 02:02:18;;;;;;;5.80;1.73;;;;;;;11.06;58.28;96655.59;8382684;28;20424;-62
2021/05/05 02:06:20;;;;;;;4.30;1.60;;;;;;;11.09;58.29;96655.38;8382290;28;20294;-62
2021/05/05 02:10:23;;;;;;;3.23;1.40;;;;;;;11.05;58.07;96654.75;8382447;28;20200;-61
2021/05/05 02:14:25;;;;;;;4.10;1.30;;;;;;;11.08;57.73;96641.63;8382334;28;20199;-61
2021/05/05 02:18:27;;;;;;;4.27;1.40;;;;;;;11.07;58.22;96628.75;8382171;28;20321;-62
2021/05/05 02:22:28;;;;;;;4.27;1.43;;;;;;;10.85;58.55;96612.09;8382214;28;20238;-62
2021/05/05 02:26:32;;;;;;;5.33;1.70;;;;;;;11.02;58.14;96615.28;8382025;28;20203;-62
2021/05/05 02:30:34;;;;;;;5.43;1.57;;;;;;;10.88;58.57;96605.84;8382276;28;20264;-62
2021/05/05 02:34:37;;;;;;;4.27;1.50;;;;;;;10.94;58.25;96605.44;8381770;28;20511;-62
2021/05/05 02:38:38;;;;;;;4.43;1.43;;;;;;;10.94;58.27;96610.63;8382159;28;20226;-62
2021/05/05 02:42:42;;;;;;;5.43;1.57;;;;;;;10.95;57.90;96602.75;8381372;28;20219;-62
2021/05/05 02:46:44;;;;;;;5.03;1.63;;;;;;;11.00;58.09;96605.00;8380933;28;20234;-61
2021/05/05 02:50:46;;;;;;;5.50;1.40;;;;;;;10.98;57.87;96614.66;8381205;28;20200;-62
2021/05/05 02:54:48;;;;;;;6.07;1.73;;;;;;;11.01;58.06;96630.00;8380845;28;20200;-61
2021/05/05 02:58:51;;;;;;;4.73;1.50;;;;;;;11.00;58.24;96617.16;8380480;28;20204;-62
2021/05/05 03:02:52;;;;;;;3.83;1.30;;;;;;;10.96;57.99;96629.47;8380539;28;20200;-62
2021/05/05 03:06:55;;;;;;;6.77;1.57;;;;;;;11.04;57.99;96650.53;8379395;28;20234;-62
2021/05/05 03:10:57;;;;;;;5.90;1.50;;;;;;;11.12;58.14;96644.84;8380613;28;20275;-62
2021/05/05 03:15:00;;;;;;;4.40;1.20;;;;;;;10.93;58.08;96645.25;8380481;28;20199;-62
2021/05/05 03:19:02;;;;;;;2.70;1.20;;;;;;;10.96;58.06;96648.44;8381051;28;20204;-62
2021/05/05 03:23:04;;;;;;;4.53;1.53;;;;;;;10.94;57.90;96637.34;8380063;28;20232;-62
2021/05/05 03:27:06;;;;;;;4.17;1.00;;;;;;;11.03;57.85;96632.50;8380158;28;20529;-62
2021/05/05 03:31:09;;;;;;;3.70;1.43;;;;;;;10.93;57.91;96630.50;8380605;28;20206;-62
2021/05/05 03:35:12;;;;;;;2.93;1.10;;;;;;;10.96;57.44;96626.88;8380297;28;20203;-62
2021/05/05 03:39:14;;;;;;;3.90;1.53;;;;;;;10.91;57.92;96627.19;8380286;28;20241;-62
2021/05/05 03:43:16;;;;;;;3.77;1.77;;;;;;;10.72;58.05;96614.66;8380172;28;20254;-62
2021/05/05 03:47:18;;;;;;;3.90;1.47;;;;;;;10.90;58.03;96615.16;8380290;28;20268;-62
2021/05/05 03:51:21;;;;;;;3.87;1.40;;;;;;;10.65;58.29;96600.44;8380281;28;20321;-62
2021/05/05 03:55:23;;;;;;;4.03;1.40;;;;;;;10.71;58.60;96615.56;8380144;28;20227;-62
2021/05/05 03:59:25;;;;;;;3.90;1.37;;;;;;;10.88;58.47;96623.97;8380117;28;20204;-62
2021/05/05 04:03:28;;;;;;;2.43;1.20;;;;;;;10.78;58.73;96646.25;8379381;28;20529;-63
2021/05/05 04:07:30;;;;;;;4.40;1.27;;;;;;;10.90;58.40;96646.25;8379921;28;20227;-62
2021/05/05 04:11:32;;;;;;;4.03;1.60;;;;;;;10.86;58.75;96636.22;8382231;28;20222;-62
2021/05/05 04:15:34;;;;;;;4.10;1.30;;;;;;;10.83;58.51;96634.63;8386294;28;20540;-62
2021/05/05 04:19:56;;;;;;;3.07;1.33;;;;;;;10.80;58.66;96637.44;8385736;28;20203;-62
2021/05/05 04:24:17;;;;;;;6.73;1.50;;;;;;;10.85;58.46;96627.63;8385985;28;20183;-62
2021/05/05 04:28:19;;;;;;;3.77;1.30;;;;;;;10.84;58.49;96630.31;8371737;28;20235;-62
2021/05/05 04:32:20;;;;;;;5.80;1.50;;;;;;;10.76;58.47;96631.63;8356639;28;20200;-63
2021/05/05 04:36:23;;;;;;;5.37;1.53;;;;;;;10.70;58.52;96637.22;8360330;28;20204;-63
2021/05/05 04:40:25;;;;;;;4.23;1.47;;;;;;;10.84;58.44;96633.72;8368810;28;20203;-63
2021/05/05 04:44:27;;;;;;;4.20;1.73;;;;;;;10.85;58.79;96634.53;8365157;28;20200;-62
2021/05/05 04:48:29;;;;;;;3.83;1.40;;;;;;;10.91;58.11;96636.75;8384749;28;20220;-62
2021/05/05 04:52:32;;;;;;;3.57;1.50;;;;;;;10.92;57.93;96640.97;8384888;28;20219;-62
2021/05/05 04:56:34;;;;;;;4.63;1.60;;;;;;;11.00;57.88;96658.59;8384439;28;20200;-62
2021/05/05 05:00:36;;;;;;;7.07;1.73;;;;;;;10.99;57.98;96659.53;8384845;28;20222;-62
2021/05/05 05:04:38;;;;;;;3.73;1.37;;;;;;;10.98;57.82;96657.88;8384026;28;20216;-62
2021/05/05 05:08:41;;;;;;;5.70;1.50;;;;;;;11.03;57.59;96648.84;8384338;28;20420;-62
2021/05/05 05:12:43;;;;;;;4.97;1.90;;;;;;;10.87;57.39;96651.66;8384220;28;20200;-62
2021/05/05 05:16:45;;;;;;;4.17;1.47;;;;;;;10.90;57.70;96648.84;8383968;28;20317;-62
2021/05/05 05:20:47;;;;;;;2.90;1.40;;;;;;;11.01;57.50;96657.69;8383611;28;20227;-62
2021/05/05 05:24:50;;;;;;;6.30;2.00;;;;;;;11.00;56.95;96651.63;8382888;28;20204;-62
2021/05/05 05:28:52;;;;;;;4.47;1.60;;;;;;;10.97;56.27;96667.41;8383527;28;20227;-62
2021/05/05 05:32:54;;;;;;;5.50;1.80;;;;;;;10.85;56.38;96670.78;8383373;28;20204;-62
2021/05/05 05:36:56;;;;;;;5.97;1.60;;;;;;;11.07;56.01;96673.63;8383610;28;20266;-62
2021/05/05 05:40:59;;;;;;;3.97;1.77;;;;;;;10.98;55.69;96686.38;8383207;28;20207;-62
2021/05/05 05:45:01;;;;;;;4.70;1.80;;;;;;;10.98;55.54;96684.59;8367278;28;20473;-62
2021/05/05 05:49:04;;;;;;;4.43;1.80;;;;;;;11.02;56.13;96693.00;8379273;28;20232;-62
2021/05/05 05:53:06;;;;;;;4.97;1.80;;;;;;;11.08;56.29;96708.97;8374066;28;20207;-62
2021/05/05 05:57:09;;;;;;;5.63;2.00;;;;;;;10.93;56.22;96710.00;8373810;28;20279;-63
2021/05/05 06:01:11;;;;;;;5.03;1.67;;;;;;;11.09;56.52;96708.03;8382454;28;20218;-63
2021/05/05 06:05:13;;;;;;;4.57;1.70;;;;;;;11.13;55.98;96712.06;8383062;28;20289;-63
2021/05/05 06:09:15;;;;;;;2.70;1.27;;;;;;;11.35;55.94;96721.03;8383114;28;20234;-63
2021/05/05 06:13:18;;;;;;;3.97;1.40;;;;;;;11.24;55.90;96724.31;8383078;28;20210;-63
2021/05/05 06:17:20;;;;;;;3.60;1.60;;;;;;;11.31;55.91;96722.97;8382859;28;20228;-63
2021/05/05 06:21:23;;;;;;;3.37;1.53;;;;;;;11.40;54.42;96728.47;8382522;28;20246;-63
2021/05/05 06:25:25;;;;;;;3.63;2.00;;;;;;;11.60;53.96;96733.16;8374040;28;20207;-63
2021/05/05 06:29:28;;;;;;;5.10;1.53;;;;;;;11.60;54.05;96729.72;8378815;28;20281;-63
2021/05/05 06:33:30;;;;;;;4.83;1.70;;;;;;;11.72;52.44;96737.47;8382020;28;20382;-63
2021/05/05 06:37:32;;;;;;;3.10;1.30;;;;;;;11.65;52.81;96741.44;8381917;28;20275;-63
2021/05/05 06:41:34;;;;;;;4.60;1.80;;;;;;;11.74;52.37;96742.56;8374366;28;20232;-63
2021/05/05 06:45:37;;;;;;;3.23;1.50;;;;;;;11.70;52.76;96744.53;8357341;28;20254;-63
2021/05/05 06:49:39;;;;;;;3.10;1.40;;;;;;;11.73;52.93;96749.53;8348075;28;20224;-63
2021/05/05 06:53:41;;;;;;;3.53;1.70;;;;;;;11.84;51.64;96759.19;8347906;28;20220;-63
2021/05/05 06:57:44;;;;;;;4.57;1.90;;;;;;;12.06;51.41;96742.97;8377350;28;20203;-63
2021/05/05 07:01:47;;;;;;;7.13;1.80;;;;;;;11.80;49.89;96752.50;8380713;28;20196;-63
2021/05/05 07:05:49;;;;;;;5.77;1.90;;;;;;;12.24;49.54;96745.22;8380543;28;20272;-63
2021/05/05 07:09:52;;;;;;;4.90;1.93;;;;;;;12.85;47.53;96742.56;8380632;28;20228;-63
2021/05/05 07:13:55;;;;;;;7.77;2.10;;;;;;;13.69;46.89;96743.31;8380233;28;20508;-63
2021/05/05 07:17:58;;;;;;;7.10;2.43;;;;;;;13.32;47.37;96738.28;8373213;28;20204;-63
2021/05/05 07:22:00;;;;;;;6.70;2.10;;;;;;;14.00;44.48;96746.16;8360423;28;20243;-63
2021/05/05 07:26:02;;;;;;;7.10;1.83;;;;;;;14.43;43.37;96740.16;8369599;28;20203;-64
2021/05/05 07:30:06;;;;;;;5.73;2.10;;;;;;;14.56;42.40;96746.03;8364226;28;20227;-63
2021/05/05 07:34:09;;;;;;;6.20;1.93;;;;;;;14.66;41.09;96741.81;8370633;28;20413;-63
2021/05/05 07:47:04;;;;;;;4.53;1.83;;;;;;;14.37;38.09;96756.28;8378763;28;20199;-63
2021/05/05 07:51:08;;;;;;;4.87;1.77;;;;;;;13.59;38.11;96757.94;8380380;28;20530;-65
2021/05/05 07:55:11;;;;;;;6.97;1.40;;;;;;;15.63;37.50;96765.16;8372596;28;20268;-69
2021/05/05 07:59:12;;;;;;;4.50;1.73;;;;;;;15.81;32.92;96762.78;8374427;28;20207;-68
2021/05/05 08:03:21;;;;;;;5.00;1.60;;;;;;;16.92;33.85;96766.28;8377539;28;20283;-66
2021/05/05 08:07:24;;;;;;;7.43;1.50;;;;;;;17.09;32.21;96761.34;8380035;28;20241;-68
2021/05/05 08:11:28;;;;;;;9.30;1.70;;;;;;;16.98;29.32;96755.31;8379587;28;20359;-67
2021/05/05 08:15:33;;;;;;;4.77;1.70;;;;;;;17.85;27.83;96760.56;8379558;28;20211;-67
2021/05/05 08:19:35;;;;;;;4.93;1.77;;;;;;;17.33;29.60;96774.81;8379108;28;20204;-67
2021/05/05 08:23:39;;;;;;;7.60;1.70;;;;;;;16.48;27.58;96759.75;8373702;28;20257;-67
2021/05/05 08:27:44;;;;;;;4.73;1.50;;;;;;;17.63;25.57;96772.16;8375739;28;20284;-67
2021/05/05 08:31:48;;;;;;;10.57;1.70;;;;;;;17.53;26.92;96762.53;8376535;28;20204;-64
2021/05/05 08:35:51;;;;;;;6.10;1.63;;;;;;;18.00;26.93;96767.00;8377778;28;20499;-65
2021/05/05 08:39:53;;;;;;;10.97;2.30;;;;;;;18.05;26.54;96777.03;8361631;28;20211;-65
2021/05/05 08:43:56;;;;;;;8.50;2.03;;;;;;;18.41;29.01;96777.16;8365453;28;20196;-64
2021/05/05 08:48:00;;;;;;;11.87;1.90;;;;;;;18.58;28.37;96784.22;8372668;28;20237;-65
2021/05/05 08:52:02;;;;;;;9.70;1.70;;;;;;;16.02;28.86;96795.88;8377334;28;20200;-64
2021/05/05 08:56:05;;;;;;;6.37;1.40;;;;;;;16.05;32.79;96793.03;8377979;28;20204;-65
2021/05/05 09:00:09;;;;;;;5.30;1.50;;;;;;;16.86;28.84;96784.31;8382144;28;20412;-64
2021/05/05 09:04:11;;;;;;;8.47;1.93;;;;;;;17.92;30.51;96777.38;8382036;28;20223;-65
2021/05/05 09:08:14;;;;;;;8.10;1.90;;;;;;;18.33;26.28;96780.50;8383390;28;20235;-64
2021/05/05 09:12:20;;;;;;;8.57;1.30;;;;;;;18.67;28.16;96791.22;8381796;28;20207;-66
2021/05/05 09:16:24;;;;;;;2.03;1.27;;;;;;;17.70;29.41;96781.09;8381746;28;20241;-65
2021/05/05 09:20:28;;;;;;;5.10;1.70;;;;;;;17.87;28.70;96784.81;8379185;28;20626;-66
2021/05/05 09:24:31;;;;;;;6.47;2.07;;;;;;;18.30;27.85;96788.66;8373421;28;20208;-66
2021/05/05 09:28:34;;;;;;;10.03;1.73;;;;;;;18.98;28.43;96800.56;8366444;28;20426;-65
2021/05/05 09:32:48;;;;;;;6.20;1.27;;;;;;;18.75;26.49;96795.72;8371036;28;20391;-65
2021/05/05 09:36:58;;;;;;;7.90;1.83;;;;;;;17.76;29.01;96796.25;8378509;28;20202;-66
2021/05/05 09:41:00;;;;;;;6.57;1.73;;;;;;;16.65;26.80;96800.91;8382160;28;20207;-74
2021/05/05 09:45:05;;;;;;;4.40;1.50;;;;;;;16.51;27.91;96812.56;8367856;28;20392;-73
2021/05/05 09:49:26;;;;;;;5.20;1.90;;;;;;;15.86;29.39;96821.63;8367461;28;20231;-75
2021/05/05 09:53:28;;;;;;;8.27;1.90;;;;;;;15.31;30.44;96812.19;8366219;28;20218;-74
2021/05/05 09:57:31;;;;;;;4.63;1.40;;;;;;;16.77;29.28;96812.06;8366556;28;20204;-75
2021/05/05 10:01:34;;;;;;;3.77;1.50;;;;;;;16.90;29.21;96814.47;8368248;28;20199;-75
2021/05/05 10:05:36;;;;;;;4.17;1.83;;;;;;;16.01;29.14;96817.72;8362524;28;20220;-75
2021/05/05 10:09:38;;;;;;;5.10;1.43;;;;;;;15.55;30.54;96835.41;8372985;28;20298;-75
2021/05/05 10:13:40;;;;;;;8.40;1.73;;;;;;;16.21;33.30;96829.91;8363983;28;20394;-62
2021/05/05 10:17:46;;;;;;;8.03;2.20;;;;;;;16.61;30.45;96829.09;8366707;28;20250;-62
2021/05/05 10:21:52;;;;;;;6.30;1.83;;;;;;;16.48;28.70;96825.06;8351502;28;20225;-62
2021/05/05 10:25:56;;;;;;;3.53;1.50;;;;;;;16.16;29.88;96829.50;8353149;28;20278;-61
2021/05/05 10:29:59;;;;;;;5.77;1.57;;;;;;;16.05;29.67;96815.66;8350836;28;20224;-62
2021/05/05 10:34:10;;;;;;;4.90;1.50;;;;;;;15.68;30.51;96829.19;8371841;28;20211;-66
2021/05/05 10:38:36;;;;;;;6.67;1.47;;;;;;;16.18;29.53;96858.06;8375638;28;20192;-61
2021/05/05 10:42:49;;;;;;;4.43;1.10;;;;;;;16.38;28.95;96851.16;8380956;28;20235;-61
2021/05/05 10:47:10;;;;;;;3.40;1.23;;;;;;;17.38;28.01;96853.75;8380958;28;20200;-62
2021/05/05 10:51:13;;;;;;;3.47;1.30;;;;;;;17.32;28.23;96845.59;8348174;28;20490;-62
2021/05/05 10:55:19;;;;;;;6.70;1.40;;;;;;;17.21;28.09;96846.59;8348149;28;20204;-62
2021/05/05 10:59:25;;;;;;;5.33;1.97;;;;;;;17.87;27.49;96845.88;8348760;28;20204;-62
2021/05/05 11:04:01;;;;;;;3.13;1.40;;;;;;;17.20;27.61;96844.91;8347793;28;20216;-62
2021/05/05 11:08:05;;;;;;;5.23;1.80;;;;;;;16.90;28.51;96836.19;8348156;28;20232;-62
2021/05/05 11:12:07;;;;;;;6.27;1.53;;;;;;;16.29;29.31;96850.16;8347466;28;20232;-62
2021/05/05 11:16:10;;;;;;;5.17;1.80;;;;;;;15.80;30.44;96852.53;8351326;28;20192;-62
2021/05/05 11:20:39;;;;;;;4.80;1.47;;;;;;;15.49;30.86;96871.63;8379791;28;20248;-62
2021/05/05 11:24:43;;;;;;;4.63;1.30;;;;;;;16.05;30.73;96886.19;8380337;28;20200;-62
2021/05/05 11:28:55;;;;;;;5.77;1.30;;;;;;;16.75;30.32;96885.41;8380482;28;20234;-62
2021/05/05 11:32:57;;;;;;;4.53;1.90;;;;;;;17.15;29.61;96886.34;8367058;28;20200;-62
2021/05/05 11:37:09;;;;;;;4.53;1.43;;;;;;;16.29;29.89;96889.34;8380510;28;20256;-74
2021/05/05 11:41:12;;;;;;;4.33;1.60;;;;;;;15.68;31.30;96895.25;8349447;28;20263;-74
2021/05/05 11:45:14;;;;;;;5.07;2.23;;;;;;;14.87;36.49;96967.78;8379886;28;20204;-74
2021/05/05 11:49:30;;;;;;;3.05;1.10;;;;;;;14.08;41.05;96985.88;8378224;28;20433;-72
2021/05/05 11:53:35;;;;;;;2.47;1.10;;;;;;;13.53;42.60;96976.88;8379950;28;20199;-71
2021/05/05 11:57:39;;;;;;;2.77;0.90;;;;;;;12.74;44.49;96992.75;8379673;28;20502;-72
2021/05/05 12:01:41;;;;;;;5.00;1.40;;;;;;;12.70;44.66;96992.13;8379333;28;20274;-72
2021/05/05 12:05:46;;;;;;;7.17;1.60;;;;;;;12.28;44.02;97003.63;8378979;28;20339;-70
2021/05/05 12:09:48;;;;;;;3.33;1.43;;;;;;;12.35;44.50;96994.50;8365064;28;20307;-73
2021/05/05 12:13:50;;;;;;;1.60;1.10;;;;;;;12.69;42.99;97007.81;8347001;28;20204;-73
2021/05/05 12:17:57;;;;;;;6.03;1.40;;;;;;;12.80;42.47;97005.31;8370188;28;20199;-74
2021/05/05 12:22:12;;;;;;;3.10;1.20;;;;;;;12.86;43.46;97017.06;8379317;28;20280;-72
2021/05/05 12:26:15;;;;;;;3.07;1.17;;;;;;;13.43;41.94;97028.75;8378951;28;20245;-72
2021/05/05 12:30:18;;;;;;;1.53;1.10;;;;;;;13.51;41.85;97028.19;8379242;28;20311;-72
2021/05/05 12:34:23;;;;;;;2.30;1.00;;;;;;;13.35;41.76;97029.28;8373804;28;20196;-72
2021/05/05 12:38:25;;;;;;;3.77;1.37;;;;;;;13.63;40.05;97027.31;8352433;28;20205;-72
2021/05/05 12:42:33;;;;;;;1.07;0.80;;;;;;;14.60;38.67;97021.06;8362617;28;20340;-73
2021/05/05 12:46:54;;;;;;;1.67;1.10;;;;;;;15.04;36.55;97022.06;8352202;28;20211;-71
2021/05/05 12:51:12;;;;;;;2.63;1.40;;;;;;;15.39;35.85;97026.28;8367593;28;20251;-72
2021/05/05 12:55:25;;;;;;;1.83;1.00;;;;;;;15.48;35.70;97018.66;8383659;28;20350;-73
2021/05/05 12:59:32;;;;;;;1.30;0.90;;;;;;;15.89;34.71;97004.94;8380983;28;20502;-72
2021/05/05 13:03:39;;;;;;;2.33;0.90;;;;;;;15.72;33.72;97031.56;8383895;28;20287;-71
2021/05/05 13:07:42;;;;;;;2.27;0.80;;;;;;;15.63;33.71;97022.66;8384163;28;20339;-71
2021/05/05 13:11:47;;;;;;;1.67;0.80;;;;;;;15.93;33.02;97010.75;8383785;28;20196;-71
2021/05/05 13:16:13;;;;;;;2.07;0.90;;;;;;;16.00;33.13;97014.53;8378779;28;20200;-71
2021/05/05 13:20:34;;;;;;;1.60;0.90;;;;;;;16.13;33.03;97033.47;8361903;28;20538;-72
2021/05/05 13:33:25;;;;;;;1.07;0.73;;;;;;;15.79;33.47;97044.03;8383413;28;20378;-71
2021/05/05 13:37:28;;;;;;;2.80;1.13;;;;;;;15.20;34.70;97033.91;8383718;28;20214;-74
2021/05/05 13:41:30;;;;;;;1.63;0.90;;;;;;;15.14;33.86;97044.81;8383363;28;20277;-72
2021/05/05 13:45:35;;;;;;;3.67;1.27;;;;;;;15.31;34.48;97051.31;8368908;28;20204;-72
2021/05/05 13:49:42;;;;;;;4.33;2.60;;;;;;;14.70;34.65;97034.25;8350368;28;20244;-72
2021/05/05 13:53:47;;;;;;;2.97;1.20;;;;;;;14.45;36.31;97059.50;8364364;28;20268;-73
2021/05/05 13:57:48;;;;;;;2.67;1.30;;;;;;;13.92;35.79;97073.81;8349783;28;20387;-62
2021/05/05 14:01:52;;;;;;;2.13;1.20;;;;;;;13.77;36.25;97088.78;8349725;28;20200;-62
2021/05/05 14:05:56;;;;;;;2.20;1.27;;;;;;;13.41;37.28;97090.44;8372561;28;20215;-62
2021/05/05 14:09:59;;;;;;;2.90;1.50;;;;;;;13.31;37.84;97100.66;8382648;28;20238;-62
2021/05/05 14:14:01;;;;;;;3.10;1.20;;;;;;;13.23;40.36;97111.53;8382143;28;20200;-62
2021/05/05 14:18:04;;;;;;;2.83;1.20;;;;;;;12.70;43.96;97113.41;8382036;28;20208;-61
2021/05/05 14:22:06;;;;;;;2.80;1.00;;;;;;;12.23;46.61;97123.34;8380800;28;20230;-62
2021/05/05 14:26:09;;;;;;;2.20;1.10;;;;;;;12.06;48.64;97134.00;8381953;28;20375;-62
2021/05/05 14:30:12;;;;;;;20.50;1.80;;;;;;;11.48;48.53;97136.66;8381216;28;20403;-61
2021/05/05 14:34:14;;;;;;;4.50;1.20;;;;;;;11.93;48.44;97123.53;8381335;28;20278;-72
2021/05/05 14:38:20;;;;;;;1.70;1.20;;;;;;;12.08;48.99;97129.53;8381092;28;20206;-72
2021/05/05 14:42:26;;;;;;;4.60;3.43;;;;;;;12.55;47.02;97140.38;8376368;28;20219;-72
2021/05/05 14:50:50;;;;;;;2.53;1.10;;;;;;;12.51;44.48;97176.94;8369540;28;20310;-73
2021/05/05 14:54:51;;;;;;;1.47;1.00;;;;;;;12.04;47.35;97227.50;8380170;28;20204;-73
2021/05/05 14:58:58;;;;;;;2.97;1.50;;;;;;;10.96;52.22;97256.38;8380494;28;20390;-72
2021/05/05 15:03:00;;;;;;;1.57;1.00;;;;;;;9.86;53.83;97255.47;8380649;28;20200;-72
2021/05/05 15:07:21;;;;;;;2.47;1.20;;;;;;;9.97;54.49;97277.25;8381191;28;20395;-71
2021/05/05 15:12:03;;;;;;;2.17;1.30;;;;;;;9.65;54.33;97294.44;8381412;28;20235;-62
2021/05/05 15:37:52;;;;;;;3.27;1.33;;;;;;;9.87;53.35;97245.03;8380980;28;20232;-61
2021/05/05 15:41:57;;;;;;;2.60;1.10;;;;;;;9.93;53.14;97236.94;8380034;28;20410;-60
2021/05/05 15:46:12;;;;;;;1.77;1.00;;;;;;;10.16;52.46;97232.28;8379688;28;20203;-60
2021/05/05 15:50:15;;;;;;;2.30;1.60;;;;;;;10.26;52.80;97238.66;8373083;28;20222;-71
2021/05/05 15:54:17;;;;;;;2.57;2.37;;;;;;;10.48;52.61;97248.69;8357037;28;20226;-75
2021/05/05 15:58:21;;;;;;;6.10;5.50;;;;;;;10.45;53.55;97242.84;8367086;28;20208;-77
2021/05/05 16:11:47;;;;;;;1.30;1.10;;;;;;;11.39;50.64;97225.38;8353471;28;20351;-61
2021/05/05 16:15:49;;;;;;;2.17;1.00;;;;;;;11.84;49.86;97231.31;8364676;28;20205;-62
2021/05/05 16:19:54;;;;;;;2.17;1.10;;;;;;;11.79;49.49;97237.72;8385888;28;20207;-61
2021/05/05 16:28:48;;;;;;;3.40;1.70;;;;;;;11.66;50.51;97246.22;8368737;28;20234;-62
2021/05/05 16:46:18;;;;;;;2.23;1.50;;;;;;;11.64;51.27;97248.06;8372962;28;20207;-63
2021/05/05 16:50:49;;;;;;;2.73;1.80;;;;;;;11.78;50.27;97259.38;8369908;28;20223;-63
2021/05/05 16:54:52;;;;;;;2.30;1.90;;;;;;;11.86;50.17;97276.16;8366118;28;20184;-63
2021/05/05 16:59:09;;;;;;;1.03;0.80;;;;;;;11.71;49.16;97274.47;8371720;28;20206;-63
2021/05/05 17:11:51;;;;;;;1.63;0.87;;;;;;;11.43;48.19;97281.28;8371468;28;20511;-62
2021/05/05 17:15:57;;;;;;;1.53;0.70;;;;;;;11.50;47.44;97280.00;8367303;28;20200;-63
2021/05/05 17:20:04;;;;;;;1.40;0.83;;;;;;;11.22;47.68;97278.19;8365490;28;20352;-62
2021/05/05 17:24:17;;;;;;;1.67;0.90;;;;;;;11.44;47.88;97279.53;8367647;28;20195;-61
2021/05/05 17:28:34;;;;;;;0.93;0.70;;;;;;;11.41;47.92;97284.91;8383386;28;20283;-61
2021/05/05 17:45:41;;;;;;;2.03;1.10;;;;;;;11.11;47.99;97280.56;8382814;28;20184;-61
2021/05/05 18:11:35;;;;;;;1.47;0.87;;;;;;;12.02;45.77;97337.53;8381904;28;20227;-61
2021/05/05 18:15:47;;;;;;;1.50;0.80;;;;;;;11.93;46.71;97344.91;8382405;28;20222;-61
2021/05/05 18:19:52;;;;;;;2.10;0.83;;;;;;;11.79;46.59;97342.28;8348700;28;20238;-61
2021/05/05 18:24:02;;;;;;;2.00;0.90;;;;;;;11.58;46.05;97352.16;8349029;28;20228;-61
2021/05/05 18:28:12;;;;;;;1.43;0.90;;;;;;;11.55;47.22;97350.56;8348309;28;20201;-61
2021/05/05 18:32:15;;;;;;;2.30;1.20;;;;;;;11.40;47.13;97359.22;8347827;28;20201;-61
2021/05/05 18:36:35;;;;;;;1.20;0.80;;;;;;;11.34;46.76;97352.63;8348475;28;20204;-61
2021/05/05 18:40:49;;;;;;;1.17;0.97;;;;;;;11.21;47.06;97359.44;8347968;28;20518;-62
2021/05/05 20:20:49;;;;;;;3.17;1.00;;;;;;;10.23;49.44;97455.34;8378482;28;20239;-61
2021/05/05 20:25:11;;;;;;;1.17;1.00;;;;;;;10.14;48.89;97454.06;8378556;28;20520;-62
2021/05/05 22:57:41;;;;;;;5.30;1.70;;;;;;;9.62;51.71;97435.97;8380111;28;20494;-62
2021/05/05 23:10:33;;;;;;;4.13;1.90;;;;;;;9.73;51.79;97438.88;8380102;28;20414;-63
2021/05/05 23:23:37;;;;;;;2.47;1.77;;;;;;;9.71;52.19;97433.78;8378882;28;20239;-62
2021/05/05 23:27:49;;;;;;;2.67;1.63;;;;;;;9.75;52.58;97430.13;8379432;28;20217;-62
2021/05/05 23:32:07;;;;;;;3.20;1.80;;;;;;;9.72;52.20;97424.25;8379157;28;20510;-62
